Terminal Aerodrome Forecast
Issued by NWS Charleston, WV

Current Version | Previous Version | Graphics & Text | Print | Product List | Glossary On
Versions: 1 2 3 4 5 6 7 8 9 10 11 12 13 14 15 16 17 18 19 20 21 22 23 24 25 26 27 28 29
000
FTUS41 KRLX 010854 AAA
TAFPKB
TAF AMD
KPKB 010854Z 0109/0206 VRB03KT 5SM BR SCT040
     FM011300 24004KT P6SM SCT035
     FM011800 27008KT P6SM SCT035
     FM020000 31004KT P6SM SCT035
     FM020500 00000KT 6SM BR SCT040
      AMD NOT SKED=

USA.gov is the U.S. government's official web portal to all federal, state and local government web resources and services.